Birsk, Russia
Current Conditions -  °F | °C
As of 8:00 AM on Thursday 23 Oct 2014 (Local Time) from UWUU Reporting Station
Broken Clouds Broken Clouds  
Wind Chill:   Ceiling: 2500
Heat Index: 19°   Visibility: 6mi
Dew Point: 12°   Wind: 11mph
Humidity: 74%   Direction: 250°WSW
Pressure: 29.71"   Gusts: NA
Location:  55.42°N, 55.54°E
Report Text: UWUU 230300Z 25005MPS 9999 BKN025 M07/M11 Q1006 320///60 NOSIGRMK QFE742/0989
Loading
Personal Weather Stations






























Interactive Weather Map
Tropical Storm Tracking
New forecast layout! Learn more

10-Day Weather Forecast

Advertisements
Track Severe Weather on mobile